sensor_id;sensor_type;location;lat;lon;timestamp;P1;durP1;ratioP1;P2;durP2;ratioP2
74293;SDS011;64044;59.904;10.738;2022-12-07T00:01:11;2.63;;;1.42;;
74293;SDS011;64044;59.904;10.738;2022-12-07T00:03:40;3.17;;;1.40;;
74293;SDS011;64044;59.904;10.738;2022-12-07T00:06:07;2.28;;;1.10;;
74293;SDS011;64044;59.904;10.738;2022-12-07T00:08:34;2.10;;;1.20;;
74293;SDS011;64044;59.904;10.738;2022-12-07T00:11:17;2.35;;;1.10;;
74293;SDS011;64044;59.904;10.738;2022-12-07T00:13:44;2.30;;;1.25;;
74293;SDS011;64044;59.904;10.738;2022-12-07T00:16:14;3.63;;;1.40;;
74293;SDS011;64044;59.904;10.738;2022-12-07T00:18:41;2.13;;;1.20;;
74293;SDS011;64044;59.904;10.738;2022-12-07T00:21:12;1.92;;;1.23;;
74293;SDS011;64044;59.904;10.738;2022-12-07T00:23:40;5.00;;;2.08;;
74293;SDS011;64044;59.904;10.738;2022-12-07T00:26:07;4.55;;;3.22;;
74293;SDS011;64044;59.904;10.738;2022-12-07T00:28:37;4.07;;;1.98;;
74293;SDS011;64044;59.904;10.738;2022-12-07T00:31:04;1.92;;;1.23;;
74293;SDS011;64044;59.904;10.738;2022-12-07T00:33:34;2.85;;;1.20;;
74293;SDS011;64044;59.904;10.738;2022-12-07T00:36:00;2.35;;;1.10;;
74293;SDS011;64044;59.904;10.738;2022-12-07T00:38:29;2.30;;;1.20;;
74293;SDS011;64044;59.904;10.738;2022-12-07T00:41:01;3.85;;;1.33;;
74293;SDS011;64044;59.904;10.738;2022-12-07T00:43:28;2.15;;;1.25;;
74293;SDS011;64044;59.904;10.738;2022-12-07T00:45:54;2.80;;;1.27;;
74293;SDS011;64044;59.904;10.738;2022-12-07T00:48:20;5.90;;;2.63;;
74293;SDS011;64044;59.904;10.738;2022-12-07T00:50:46;11.35;;;2.78;;
74293;SDS011;64044;59.904;10.738;2022-12-07T00:53:13;5.75;;;2.67;;
74293;SDS011;64044;59.904;10.738;2022-12-07T00:55:38;8.38;;;3.38;;
74293;SDS011;64044;59.904;10.738;2022-12-07T00:58:04;6.07;;;2.70;;
74293;SDS011;64044;59.904;10.738;2022-12-07T01:00:30;9.63;;;3.40;;
74293;SDS011;64044;59.904;10.738;2022-12-07T01:02:56;4.22;;;2.33;;
74293;SDS011;64044;59.904;10.738;2022-12-07T01:05:22;3.33;;;1.25;;
74293;SDS011;64044;59.904;10.738;2022-12-07T01:07:47;2.17;;;0.90;;
74293;SDS011;64044;59.904;10.738;2022-12-07T01:10:13;0.88;;;0.75;;
74293;SDS011;64044;59.904;10.738;2022-12-07T01:12:40;0.77;;;0.50;;
74293;SDS011;64044;59.904;10.738;2022-12-07T01:15:06;1.45;;;0.80;;
74293;SDS011;64044;59.904;10.738;2022-12-07T01:17:33;1.95;;;0.80;;
74293;SDS011;64044;59.904;10.738;2022-12-07T01:19:58;0.85;;;0.60;;
74293;SDS011;64044;59.904;10.738;2022-12-07T01:22:24;0.93;;;0.45;;
74293;SDS011;64044;59.904;10.738;2022-12-07T01:24:50;3.03;;;0.73;;
74293;SDS011;64044;59.904;10.738;2022-12-07T01:27:15;1.38;;;0.60;;
74293;SDS011;64044;59.904;10.738;2022-12-07T01:29:41;1.35;;;0.85;;
74293;SDS011;64044;59.904;10.738;2022-12-07T01:32:07;1.23;;;0.60;;
74293;SDS011;64044;59.904;10.738;2022-12-07T01:34:32;2.35;;;0.80;;
74293;SDS011;64044;59.904;10.738;2022-12-07T01:36:58;1.25;;;0.80;;
74293;SDS011;64044;59.904;10.738;2022-12-07T01:39:24;1.13;;;0.60;;
74293;SDS011;64044;59.904;10.738;2022-12-07T01:41:50;1.85;;;0.57;;
74293;SDS011;64044;59.904;10.738;2022-12-07T01:47:26;3.10;;;0.47;;
74293;SDS011;64044;59.904;10.738;2022-12-07T01:49:52;0.60;;;0.50;;
74293;SDS011;64044;59.904;10.738;2022-12-07T01:52:19;1.10;;;0.55;;
74293;SDS011;64044;59.904;10.738;2022-12-07T01:54:45;0.50;;;0.50;;
74293;SDS011;64044;59.904;10.738;2022-12-07T01:57:14;0.70;;;0.52;;
74293;SDS011;64044;59.904;10.738;2022-12-07T01:59:42;0.55;;;0.28;;
74293;SDS011;64044;59.904;10.738;2022-12-07T02:04:54;0.88;;;0.40;;
74293;SDS011;64044;59.904;10.738;2022-12-07T02:07:22;1.38;;;0.50;;
74293;SDS011;64044;59.904;10.738;2022-12-07T02:09:49;0.95;;;0.40;;
74293;SDS011;64044;59.904;10.738;2022-12-07T02:12:15;0.63;;;0.57;;
74293;SDS011;64044;59.904;10.738;2022-12-07T02:14:41;2.30;;;0.40;;
74293;SDS011;64044;59.904;10.738;2022-12-07T02:17:21;0.20;;;0.20;;
74293;SDS011;64044;59.904;10.738;2022-12-07T02:27:47;0.38;;;0.32;;
74293;SDS011;64044;59.904;10.738;2022-12-07T02:30:42;0.80;;;0.40;;
74293;SDS011;64044;59.904;10.738;2022-12-07T02:33:14;0.98;;;0.40;;
74293;SDS011;64044;59.904;10.738;2022-12-07T02:38:38;1.00;;;0.40;;
74293;SDS011;64044;59.904;10.738;2022-12-07T02:41:12;0.25;;;0.25;;
74293;SDS011;64044;59.904;10.738;2022-12-07T02:43:44;0.22;;;0.22;;
74293;SDS011;64044;59.904;10.738;2022-12-07T02:46:34;0.80;;;0.45;;
74293;SDS011;64044;59.904;10.738;2022-12-07T02:49:03;1.08;;;0.30;;
74293;SDS011;64044;59.904;10.738;2022-12-07T02:51:30;3.72;;;0.30;;
74293;SDS011;64044;59.904;10.738;2022-12-07T02:53:57;1.25;;;0.43;;
74293;SDS011;64044;59.904;10.738;2022-12-07T03:18:28;1.05;;;0.47;;
74293;SDS011;64044;59.904;10.738;2022-12-07T03:20:57;0.20;;;0.20;;
74293;SDS011;64044;59.904;10.738;2022-12-07T03:23:28;1.65;;;0.40;;
74293;SDS011;64044;59.904;10.738;2022-12-07T03:25:57;1.20;;;0.43;;
74293;SDS011;64044;59.904;10.738;2022-12-07T03:28:26;3.80;;;0.70;;
74293;SDS011;64044;59.904;10.738;2022-12-07T03:33:40;0.60;;;0.50;;
74293;SDS011;64044;59.904;10.738;2022-12-07T03:36:37;0.60;;;0.47;;
74293;SDS011;64044;59.904;10.738;2022-12-07T03:41:47;1.25;;;0.40;;
74293;SDS011;64044;59.904;10.738;2022-12-07T03:44:14;2.55;;;0.68;;
74293;SDS011;64044;59.904;10.738;2022-12-07T03:46:45;0.70;;;0.30;;
74293;SDS011;64044;59.904;10.738;2022-12-07T03:51:46;1.08;;;0.55;;
74293;SDS011;64044;59.904;10.738;2022-12-07T03:54:34;1.58;;;0.68;;
74293;SDS011;64044;59.904;10.738;2022-12-07T03:57:08;2.80;;;0.75;;
74293;SDS011;64044;59.904;10.738;2022-12-07T03:59:35;4.80;;;0.63;;
74293;SDS011;64044;59.904;10.738;2022-12-07T04:02:03;1.52;;;0.82;;
74293;SDS011;64044;59.904;10.738;2022-12-07T04:04:30;1.02;;;0.57;;
74293;SDS011;64044;59.904;10.738;2022-12-07T04:06:56;1.48;;;0.57;;
74293;SDS011;64044;59.904;10.738;2022-12-07T04:09:22;1.60;;;0.60;;
74293;SDS011;64044;59.904;10.738;2022-12-07T04:11:47;1.52;;;0.60;;
74293;SDS011;64044;59.904;10.738;2022-12-07T04:14:13;2.78;;;0.70;;
74293;SDS011;64044;59.904;10.738;2022-12-07T04:16:43;2.57;;;0.57;;
74293;SDS011;64044;59.904;10.738;2022-12-07T04:19:13;3.10;;;0.80;;
74293;SDS011;64044;59.904;10.738;2022-12-07T04:21:39;1.58;;;0.60;;
74293;SDS011;64044;59.904;10.738;2022-12-07T04:24:05;3.17;;;0.82;;
74293;SDS011;64044;59.904;10.738;2022-12-07T04:26:31;1.15;;;0.60;;
74293;SDS011;64044;59.904;10.738;2022-12-07T04:28:56;1.25;;;0.90;;
74293;SDS011;64044;59.904;10.738;2022-12-07T04:31:22;1.58;;;0.50;;
74293;SDS011;64044;59.904;10.738;2022-12-07T04:33:48;1.85;;;0.75;;
74293;SDS011;64044;59.904;10.738;2022-12-07T04:36:14;2.33;;;1.10;;
74293;SDS011;64044;59.904;10.738;2022-12-07T04:38:39;1.60;;;0.80;;
74293;SDS011;64044;59.904;10.738;2022-12-07T04:41:05;2.45;;;0.80;;
74293;SDS011;64044;59.904;10.738;2022-12-07T04:43:32;1.63;;;0.60;;
74293;SDS011;64044;59.904;10.738;2022-12-07T04:45:58;2.85;;;0.88;;
74293;SDS011;64044;59.904;10.738;2022-12-07T04:48:24;3.05;;;0.65;;
74293;SDS011;64044;59.904;10.738;2022-12-07T04:50:50;1.08;;;0.68;;
74293;SDS011;64044;59.904;10.738;2022-12-07T04:53:15;1.13;;;0.68;;
74293;SDS011;64044;59.904;10.738;2022-12-07T04:55:41;0.95;;;0.50;;
74293;SDS011;64044;59.904;10.738;2022-12-07T04:58:07;1.85;;;0.95;;
74293;SDS011;64044;59.904;10.738;2022-12-07T05:00:33;1.70;;;0.47;;
74293;SDS011;64044;59.904;10.738;2022-12-07T05:02:58;0.63;;;0.40;;
74293;SDS011;64044;59.904;10.738;2022-12-07T05:05:24;0.10;;;0.05;;
74293;SDS011;64044;59.904;10.738;2022-12-07T05:07:49;0.43;;;0.40;;
74293;SDS011;64044;59.904;10.738;2022-12-07T05:10:15;0.80;;;0.30;;
74293;SDS011;64044;59.904;10.738;2022-12-07T05:12:41;0.35;;;0.22;;
74293;SDS011;64044;59.904;10.738;2022-12-07T05:15:07;0.63;;;0.40;;
74293;SDS011;64044;59.904;10.738;2022-12-07T05:17:33;0.52;;;0.30;;
74293;SDS011;64044;59.904;10.738;2022-12-07T05:19:58;0.85;;;0.20;;
74293;SDS011;64044;59.904;10.738;2022-12-07T05:22:24;1.65;;;0.50;;
74293;SDS011;64044;59.904;10.738;2022-12-07T05:24:53;0.68;;;0.22;;
74293;SDS011;64044;59.904;10.738;2022-12-07T05:27:19;2.05;;;0.45;;
74293;SDS011;64044;59.904;10.738;2022-12-07T05:29:45;0.32;;;0.30;;
74293;SDS011;64044;59.904;10.738;2022-12-07T05:32:10;0.65;;;0.20;;
74293;SDS011;64044;59.904;10.738;2022-12-07T05:34:36;2.90;;;0.20;;
74293;SDS011;64044;59.904;10.738;2022-12-07T05:37:02;2.78;;;0.22;;
74293;SDS011;64044;59.904;10.738;2022-12-07T05:39:27;0.75;;;0.30;;
74293;SDS011;64044;59.904;10.738;2022-12-07T05:41:53;1.20;;;0.60;;
74293;SDS011;64044;59.904;10.738;2022-12-07T05:44:37;1.25;;;0.40;;
74293;SDS011;64044;59.904;10.738;2022-12-07T05:47:08;0.73;;;0.60;;
74293;SDS011;64044;59.904;10.738;2022-12-07T05:49:34;0.82;;;0.70;;
74293;SDS011;64044;59.904;10.738;2022-12-07T05:51:59;1.23;;;0.70;;
74293;SDS011;64044;59.904;10.738;2022-12-07T05:54:25;1.83;;;0.60;;
74293;SDS011;64044;59.904;10.738;2022-12-07T05:56:51;2.97;;;0.63;;
74293;SDS011;64044;59.904;10.738;2022-12-07T05:59:17;0.88;;;0.40;;
74293;SDS011;64044;59.904;10.738;2022-12-07T06:01:49;0.70;;;0.45;;
74293;SDS011;64044;59.904;10.738;2022-12-07T06:04:15;1.23;;;0.60;;
74293;SDS011;64044;59.904;10.738;2022-12-07T06:06:41;0.63;;;0.38;;
74293;SDS011;64044;59.904;10.738;2022-12-07T06:09:06;1.65;;;0.60;;
74293;SDS011;64044;59.904;10.738;2022-12-07T06:11:32;1.15;;;0.45;;
74293;SDS011;64044;59.904;10.738;2022-12-07T06:14:16;0.80;;;0.70;;
74293;SDS011;64044;59.904;10.738;2022-12-07T06:16:42;1.17;;;0.68;;
74293;SDS011;64044;59.904;10.738;2022-12-07T06:19:07;3.08;;;0.50;;
74293;SDS011;64044;59.904;10.738;2022-12-07T06:21:33;1.90;;;0.55;;
74293;SDS011;64044;59.904;10.738;2022-12-07T06:23:59;0.77;;;0.55;;
74293;SDS011;64044;59.904;10.738;2022-12-07T06:26:24;0.75;;;0.52;;
74293;SDS011;64044;59.904;10.738;2022-12-07T06:28:50;0.93;;;0.50;;
74293;SDS011;64044;59.904;10.738;2022-12-07T06:31:16;2.95;;;0.60;;
74293;SDS011;64044;59.904;10.738;2022-12-07T06:33:41;2.28;;;0.60;;
74293;SDS011;64044;59.904;10.738;2022-12-07T06:36:07;5.22;;;0.57;;
74293;SDS011;64044;59.904;10.738;2022-12-07T06:38:33;1.73;;;0.45;;
74293;SDS011;64044;59.904;10.738;2022-12-07T06:40:59;0.95;;;0.60;;
74293;SDS011;64044;59.904;10.738;2022-12-07T06:43:25;3.85;;;0.65;;
74293;SDS011;64044;59.904;10.738;2022-12-07T06:45:50;6.97;;;2.15;;
74293;SDS011;64044;59.904;10.738;2022-12-07T06:48:16;2.95;;;0.95;;
74293;SDS011;64044;59.904;10.738;2022-12-07T06:50:44;3.33;;;0.77;;
74293;SDS011;64044;59.904;10.738;2022-12-07T06:53:10;0.85;;;0.60;;
74293;SDS011;64044;59.904;10.738;2022-12-07T06:55:36;1.52;;;0.70;;
74293;SDS011;64044;59.904;10.738;2022-12-07T06:58:01;1.88;;;0.63;;
74293;SDS011;64044;59.904;10.738;2022-12-07T07:00:27;0.90;;;0.80;;
74293;SDS011;64044;59.904;10.738;2022-12-07T07:02:53;1.92;;;0.80;;
74293;SDS011;64044;59.904;10.738;2022-12-07T07:05:19;1.52;;;0.80;;
74293;SDS011;64044;59.904;10.738;2022-12-07T07:07:47;3.22;;;1.15;;
74293;SDS011;64044;59.904;10.738;2022-12-07T07:10:13;2.33;;;1.10;;
74293;SDS011;64044;59.904;10.738;2022-12-07T07:12:39;2.40;;;1.05;;
74293;SDS011;64044;59.904;10.738;2022-12-07T07:15:05;3.20;;;1.17;;
74293;SDS011;64044;59.904;10.738;2022-12-07T07:17:30;3.28;;;1.65;;
74293;SDS011;64044;59.904;10.738;2022-12-07T07:19:56;4.68;;;1.83;;
74293;SDS011;64044;59.904;10.738;2022-12-07T07:22:22;7.78;;;2.25;;
74293;SDS011;64044;59.904;10.738;2022-12-07T07:24:47;7.93;;;2.08;;
74293;SDS011;64044;59.904;10.738;2022-12-07T07:27:13;7.40;;;2.50;;
74293;SDS011;64044;59.904;10.738;2022-12-07T07:29:39;5.03;;;2.78;;
74293;SDS011;64044;59.904;10.738;2022-12-07T07:32:04;2.90;;;1.50;;
74293;SDS011;64044;59.904;10.738;2022-12-07T07:34:30;6.25;;;1.30;;
74293;SDS011;64044;59.904;10.738;2022-12-07T07:36:55;4.60;;;1.45;;
74293;SDS011;64044;59.904;10.738;2022-12-07T07:39:21;3.00;;;0.98;;
74293;SDS011;64044;59.904;10.738;2022-12-07T07:41:47;6.22;;;2.10;;
74293;SDS011;64044;59.904;10.738;2022-12-07T07:44:12;3.30;;;1.38;;
74293;SDS011;64044;59.904;10.738;2022-12-07T07:46:38;6.15;;;2.25;;
74293;SDS011;64044;59.904;10.738;2022-12-07T07:49:04;4.60;;;1.42;;
74293;SDS011;64044;59.904;10.738;2022-12-07T07:51:29;2.83;;;1.25;;
74293;SDS011;64044;59.904;10.738;2022-12-07T07:53:55;6.47;;;1.45;;
74293;SDS011;64044;59.904;10.738;2022-12-07T07:56:20;3.67;;;1.58;;
74293;SDS011;64044;59.904;10.738;2022-12-07T07:58:46;2.92;;;1.38;;
74293;SDS011;64044;59.904;10.738;2022-12-07T08:01:11;2.63;;;1.00;;
74293;SDS011;64044;59.904;10.738;2022-12-07T08:03:38;3.15;;;1.05;;
74293;SDS011;64044;59.904;10.738;2022-12-07T08:06:04;1.23;;;0.82;;
74293;SDS011;64044;59.904;10.738;2022-12-07T08:08:30;5.32;;;1.98;;
74293;SDS011;64044;59.904;10.738;2022-12-07T08:10:56;11.85;;;2.38;;
74293;SDS011;64044;59.904;10.738;2022-12-07T08:13:25;5.95;;;2.35;;
74293;SDS011;64044;59.904;10.738;2022-12-07T08:15:51;8.93;;;3.08;;
74293;SDS011;64044;59.904;10.738;2022-12-07T08:18:16;8.43;;;3.03;;
74293;SDS011;64044;59.904;10.738;2022-12-07T08:20:42;10.25;;;3.17;;
74293;SDS011;64044;59.904;10.738;2022-12-07T08:23:08;7.35;;;3.50;;
74293;SDS011;64044;59.904;10.738;2022-12-07T08:25:35;14.55;;;3.53;;
74293;SDS011;64044;59.904;10.738;2022-12-07T08:28:01;13.05;;;3.42;;
74293;SDS011;64044;59.904;10.738;2022-12-07T08:30:27;11.05;;;3.50;;
74293;SDS011;64044;59.904;10.738;2022-12-07T08:32:54;14.48;;;4.82;;
74293;SDS011;64044;59.904;10.738;2022-12-07T08:35:20;10.13;;;3.13;;
74293;SDS011;64044;59.904;10.738;2022-12-07T08:37:46;10.82;;;3.40;;
74293;SDS011;64044;59.904;10.738;2022-12-07T08:40:11;11.65;;;3.97;;
74293;SDS011;64044;59.904;10.738;2022-12-07T08:42:47;9.68;;;3.33;;
74293;SDS011;64044;59.904;10.738;2022-12-07T08:45:14;10.50;;;4.22;;
74293;SDS011;64044;59.904;10.738;2022-12-07T08:47:50;6.28;;;2.65;;
74293;SDS011;64044;59.904;10.738;2022-12-07T08:50:25;6.40;;;2.58;;
74293;SDS011;64044;59.904;10.738;2022-12-07T08:52:52;14.40;;;3.20;;
74293;SDS011;64044;59.904;10.738;2022-12-07T08:55:21;6.78;;;3.42;;
74293;SDS011;64044;59.904;10.738;2022-12-07T08:57:48;16.80;;;4.50;;
74293;SDS011;64044;59.904;10.738;2022-12-07T09:00:15;14.45;;;4.65;;
74293;SDS011;64044;59.904;10.738;2022-12-07T09:02:42;14.27;;;4.32;;
74293;SDS011;64044;59.904;10.738;2022-12-07T09:05:09;14.57;;;3.00;;
74293;SDS011;64044;59.904;10.738;2022-12-07T09:07:35;8.88;;;3.10;;
74293;SDS011;64044;59.904;10.738;2022-12-07T09:10:02;9.45;;;3.35;;
74293;SDS011;64044;59.904;10.738;2022-12-07T09:12:28;7.15;;;3.35;;
74293;SDS011;64044;59.904;10.738;2022-12-07T09:14:54;7.45;;;3.63;;
74293;SDS011;64044;59.904;10.738;2022-12-07T09:17:20;11.98;;;4.35;;
74293;SDS011;64044;59.904;10.738;2022-12-07T09:19:45;11.35;;;4.15;;
74293;SDS011;64044;59.904;10.738;2022-12-07T09:22:11;13.10;;;3.90;;
74293;SDS011;64044;59.904;10.738;2022-12-07T09:24:36;15.40;;;4.38;;
74293;SDS011;64044;59.904;10.738;2022-12-07T09:27:02;10.13;;;4.30;;
74293;SDS011;64044;59.904;10.738;2022-12-07T09:29:28;11.32;;;4.13;;
74293;SDS011;64044;59.904;10.738;2022-12-07T09:31:53;11.85;;;3.20;;
74293;SDS011;64044;59.904;10.738;2022-12-07T09:34:19;10.73;;;3.40;;
74293;SDS011;64044;59.904;10.738;2022-12-07T09:36:45;6.80;;;2.80;;
74293;SDS011;64044;59.904;10.738;2022-12-07T09:39:11;15.00;;;3.22;;
74293;SDS011;64044;59.904;10.738;2022-12-07T09:41:37;8.27;;;2.95;;
74293;SDS011;64044;59.904;10.738;2022-12-07T09:44:05;9.25;;;2.72;;
74293;SDS011;64044;59.904;10.738;2022-12-07T09:46:36;8.13;;;3.03;;
74293;SDS011;64044;59.904;10.738;2022-12-07T09:49:03;8.98;;;2.70;;
74293;SDS011;64044;59.904;10.738;2022-12-07T09:51:30;4.57;;;2.50;;
74293;SDS011;64044;59.904;10.738;2022-12-07T09:53:56;6.05;;;2.20;;
74293;SDS011;64044;59.904;10.738;2022-12-07T09:56:23;4.22;;;1.90;;
74293;SDS011;64044;59.904;10.738;2022-12-07T09:58:50;4.05;;;2.22;;
74293;SDS011;64044;59.904;10.738;2022-12-07T10:01:22;8.57;;;2.17;;
74293;SDS011;64044;59.904;10.738;2022-12-07T10:03:49;6.25;;;2.70;;
74293;SDS011;64044;59.904;10.738;2022-12-07T10:06:20;7.45;;;1.88;;
74293;SDS011;64044;59.904;10.738;2022-12-07T10:08:46;7.05;;;2.30;;
74293;SDS011;64044;59.904;10.738;2022-12-07T10:11:12;6.60;;;2.15;;
74293;SDS011;64044;59.904;10.738;2022-12-07T10:13:47;5.25;;;2.10;;
74293;SDS011;64044;59.904;10.738;2022-12-07T10:18:49;8.68;;;3.15;;
74293;SDS011;64044;59.904;10.738;2022-12-07T10:21:16;6.78;;;2.35;;
74293;SDS011;64044;59.904;10.738;2022-12-07T10:31:42;5.35;;;2.00;;
74293;SDS011;64044;59.904;10.738;2022-12-07T10:34:23;7.15;;;1.98;;
74293;SDS011;64044;59.904;10.738;2022-12-07T10:36:49;5.20;;;2.17;;
74293;SDS011;64044;59.904;10.738;2022-12-07T10:39:19;5.28;;;1.95;;
74293;SDS011;64044;59.904;10.738;2022-12-07T10:42:02;5.78;;;1.42;;
74293;SDS011;64044;59.904;10.738;2022-12-07T10:44:29;7.78;;;2.13;;
74293;SDS011;64044;59.904;10.738;2022-12-07T10:50:28;3.28;;;1.40;;
74293;SDS011;64044;59.904;10.738;2022-12-07T10:55:32;5.65;;;1.73;;
74293;SDS011;64044;59.904;10.738;2022-12-07T11:06:34;3.97;;;2.28;;
74293;SDS011;64044;59.904;10.738;2022-12-07T11:12:06;2.78;;;1.30;;
74293;SDS011;64044;59.904;10.738;2022-12-07T11:14:44;10.65;;;1.38;;
74293;SDS011;64044;59.904;10.738;2022-12-07T11:17:40;2.03;;;1.30;;
74293;SDS011;64044;59.904;10.738;2022-12-07T11:31:03;1.52;;;0.85;;
74293;SDS011;64044;59.904;10.738;2022-12-07T11:36:16;3.50;;;1.10;;
74293;SDS011;64044;59.904;10.738;2022-12-07T11:38:57;2.15;;;0.90;;
74293;SDS011;64044;59.904;10.738;2022-12-07T11:41:29;2.47;;;1.30;;
74293;SDS011;64044;59.904;10.738;2022-12-07T11:44:06;1.60;;;1.02;;
74293;SDS011;64044;59.904;10.738;2022-12-07T11:49:07;1.95;;;1.15;;
74293;SDS011;64044;59.904;10.738;2022-12-07T11:51:40;5.18;;;1.45;;
74293;SDS011;64044;59.904;10.738;2022-12-07T11:54:27;3.33;;;0.95;;
74293;SDS011;64044;59.904;10.738;2022-12-07T11:57:02;6.10;;;1.52;;
74293;SDS011;64044;59.904;10.738;2022-12-07T11:59:42;3.10;;;1.45;;
74293;SDS011;64044;59.904;10.738;2022-12-07T12:02:21;3.42;;;1.17;;
74293;SDS011;64044;59.904;10.738;2022-12-07T12:07:42;1.40;;;0.90;;
74293;SDS011;64044;59.904;10.738;2022-12-07T12:13:46;2.60;;;0.93;;
74293;SDS011;64044;59.904;10.738;2022-12-07T12:21:52;1.42;;;0.95;;
74293;SDS011;64044;59.904;10.738;2022-12-07T12:24:25;2.33;;;0.73;;
74293;SDS011;64044;59.904;10.738;2022-12-07T12:27:30;1.08;;;0.80;;
74293;SDS011;64044;59.904;10.738;2022-12-07T12:30:00;4.22;;;1.45;;
74293;SDS011;64044;59.904;10.738;2022-12-07T12:42:46;41.70;;;14.88;;
74293;SDS011;64044;59.904;10.738;2022-12-07T12:48:02;10.30;;;3.97;;
74293;SDS011;64044;59.904;10.738;2022-12-07T12:50:29;6.72;;;2.17;;
74293;SDS011;64044;59.904;10.738;2022-12-07T12:53:01;9.85;;;1.60;;
74293;SDS011;64044;59.904;10.738;2022-12-07T13:00:44;2.92;;;0.90;;
74293;SDS011;64044;59.904;10.738;2022-12-07T13:03:30;2.33;;;0.70;;
74293;SDS011;64044;59.904;10.738;2022-12-07T13:08:44;2.95;;;0.93;;
74293;SDS011;64044;59.904;10.738;2022-12-07T13:17:07;2.83;;;0.98;;
74293;SDS011;64044;59.904;10.738;2022-12-07T13:20:00;2.28;;;1.20;;
74293;SDS011;64044;59.904;10.738;2022-12-07T13:24:56;3.38;;;1.40;;
74293;SDS011;64044;59.904;10.738;2022-12-07T13:27:24;4.40;;;1.90;;
74293;SDS011;64044;59.904;10.738;2022-12-07T13:29:52;7.88;;;1.67;;
74293;SDS011;64044;59.904;10.738;2022-12-07T13:32:25;4.43;;;1.20;;
74293;SDS011;64044;59.904;10.738;2022-12-07T13:34:52;5.90;;;1.63;;
74293;SDS011;64044;59.904;10.738;2022-12-07T13:37:30;5.53;;;2.25;;
74293;SDS011;64044;59.904;10.738;2022-12-07T13:40:03;4.63;;;1.20;;
74293;SDS011;64044;59.904;10.738;2022-12-07T13:42:44;6.13;;;1.85;;
74293;SDS011;64044;59.904;10.738;2022-12-07T13:48:16;6.50;;;1.98;;
74293;SDS011;64044;59.904;10.738;2022-12-07T13:51:00;11.95;;;1.83;;
74293;SDS011;64044;59.904;10.738;2022-12-07T13:53:28;8.30;;;1.52;;
74293;SDS011;64044;59.904;10.738;2022-12-07T13:55:56;4.97;;;1.52;;
74293;SDS011;64044;59.904;10.738;2022-12-07T13:58:23;6.18;;;1.52;;
74293;SDS011;64044;59.904;10.738;2022-12-07T14:00:49;6.95;;;1.50;;
74293;SDS011;64044;59.904;10.738;2022-12-07T14:05:41;4.90;;;1.92;;
74293;SDS011;64044;59.904;10.738;2022-12-07T14:16:03;7.93;;;2.63;;
74293;SDS011;64044;59.904;10.738;2022-12-07T14:18:52;4.25;;;1.52;;
74293;SDS011;64044;59.904;10.738;2022-12-07T14:21:20;27.77;;;7.55;;
74293;SDS011;64044;59.904;10.738;2022-12-07T14:26:34;40.92;;;9.55;;
74293;SDS011;64044;59.904;10.738;2022-12-07T14:31:46;10.57;;;3.28;;
74293;SDS011;64044;59.904;10.738;2022-12-07T14:34:12;10.88;;;3.33;;
74293;SDS011;64044;59.904;10.738;2022-12-07T14:36:38;16.70;;;2.25;;
74293;SDS011;64044;59.904;10.738;2022-12-07T14:39:03;5.38;;;2.03;;
74293;SDS011;64044;59.904;10.738;2022-12-07T14:41:29;20.15;;;5.35;;
74293;SDS011;64044;59.904;10.738;2022-12-07T14:44:13;8.75;;;2.05;;
74293;SDS011;64044;59.904;10.738;2022-12-07T14:46:39;6.28;;;1.42;;
74293;SDS011;64044;59.904;10.738;2022-12-07T14:49:04;7.32;;;1.98;;
74293;SDS011;64044;59.904;10.738;2022-12-07T14:51:30;2.45;;;1.20;;
74293;SDS011;64044;59.904;10.738;2022-12-07T14:53:57;10.93;;;1.70;;
74293;SDS011;64044;59.904;10.738;2022-12-07T14:56:22;28.60;;;3.15;;
74293;SDS011;64044;59.904;10.738;2022-12-07T14:58:52;18.40;;;3.47;;
74293;SDS011;64044;59.904;10.738;2022-12-07T15:01:18;5.95;;;1.30;;
74293;SDS011;64044;59.904;10.738;2022-12-07T15:03:44;5.57;;;1.20;;
74293;SDS011;64044;59.904;10.738;2022-12-07T15:06:10;4.47;;;0.90;;
74293;SDS011;64044;59.904;10.738;2022-12-07T15:08:39;4.20;;;1.23;;
74293;SDS011;64044;59.904;10.738;2022-12-07T15:11:05;14.15;;;1.90;;
74293;SDS011;64044;59.904;10.738;2022-12-07T15:13:31;6.38;;;1.98;;
74293;SDS011;64044;59.904;10.738;2022-12-07T15:16:16;11.75;;;1.73;;
74293;SDS011;64044;59.904;10.738;2022-12-07T15:18:45;5.93;;;1.63;;
74293;SDS011;64044;59.904;10.738;2022-12-07T15:21:12;7.63;;;1.45;;
74293;SDS011;64044;59.904;10.738;2022-12-07T15:23:39;2.88;;;1.25;;
74293;SDS011;64044;59.904;10.738;2022-12-07T15:26:05;5.40;;;1.45;;
74293;SDS011;64044;59.904;10.738;2022-12-07T15:28:31;27.17;;;3.50;;
74293;SDS011;64044;59.904;10.738;2022-12-07T15:30:56;20.23;;;3.63;;
74293;SDS011;64044;59.904;10.738;2022-12-07T15:33:22;10.68;;;1.90;;
74293;SDS011;64044;59.904;10.738;2022-12-07T15:35:47;10.63;;;2.17;;
74293;SDS011;64044;59.904;10.738;2022-12-07T15:38:13;11.98;;;2.30;;
74293;SDS011;64044;59.904;10.738;2022-12-07T15:40:39;6.13;;;1.10;;
74293;SDS011;64044;59.904;10.738;2022-12-07T15:43:04;8.23;;;1.30;;
74293;SDS011;64044;59.904;10.738;2022-12-07T15:45:50;4.60;;;1.27;;
74293;SDS011;64044;59.904;10.738;2022-12-07T15:48:16;3.17;;;0.75;;
74293;SDS011;64044;59.904;10.738;2022-12-07T15:50:42;3.35;;;0.60;;
74293;SDS011;64044;59.904;10.738;2022-12-07T15:53:07;1.60;;;0.50;;
74293;SDS011;64044;59.904;10.738;2022-12-07T15:55:33;5.25;;;1.48;;
74293;SDS011;64044;59.904;10.738;2022-12-07T15:57:59;2.85;;;1.35;;
74293;SDS011;64044;59.904;10.738;2022-12-07T16:00:26;5.82;;;1.67;;
74293;SDS011;64044;59.904;10.738;2022-12-07T16:02:51;8.18;;;2.10;;
74293;SDS011;64044;59.904;10.738;2022-12-07T16:05:17;23.67;;;4.30;;
74293;SDS011;64044;59.904;10.738;2022-12-07T16:07:42;9.00;;;2.80;;
74293;SDS011;64044;59.904;10.738;2022-12-07T16:10:11;5.90;;;2.38;;
74293;SDS011;64044;59.904;10.738;2022-12-07T16:12:36;9.57;;;2.67;;
74293;SDS011;64044;59.904;10.738;2022-12-07T16:15:02;11.98;;;2.83;;
74293;SDS011;64044;59.904;10.738;2022-12-07T16:17:28;8.38;;;2.33;;
74293;SDS011;64044;59.904;10.738;2022-12-07T16:19:53;6.05;;;1.92;;
74293;SDS011;64044;59.904;10.738;2022-12-07T16:22:19;7.63;;;2.20;;
74293;SDS011;64044;59.904;10.738;2022-12-07T16:24:45;3.78;;;1.83;;
74293;SDS011;64044;59.904;10.738;2022-12-07T16:27:10;5.95;;;2.25;;
74293;SDS011;64044;59.904;10.738;2022-12-07T16:29:36;6.35;;;2.90;;
74293;SDS011;64044;59.904;10.738;2022-12-07T16:32:01;3.60;;;2.03;;
74293;SDS011;64044;59.904;10.738;2022-12-07T16:34:28;4.18;;;2.15;;
74293;SDS011;64044;59.904;10.738;2022-12-07T16:36:53;7.22;;;2.78;;
74293;SDS011;64044;59.904;10.738;2022-12-07T16:39:19;7.00;;;3.58;;
74293;SDS011;64044;59.904;10.738;2022-12-07T16:41:44;11.30;;;4.13;;
74293;SDS011;64044;59.904;10.738;2022-12-07T16:44:11;7.80;;;3.65;;
74293;SDS011;64044;59.904;10.738;2022-12-07T16:46:37;14.20;;;4.10;;
74293;SDS011;64044;59.904;10.738;2022-12-07T16:49:03;17.33;;;4.55;;
74293;SDS011;64044;59.904;10.738;2022-12-07T16:51:30;11.27;;;3.83;;
74293;SDS011;64044;59.904;10.738;2022-12-07T16:53:56;14.07;;;4.95;;
74293;SDS011;64044;59.904;10.738;2022-12-07T16:56:21;14.20;;;6.03;;
74293;SDS011;64044;59.904;10.738;2022-12-07T16:58:47;12.32;;;4.97;;
74293;SDS011;64044;59.904;10.738;2022-12-07T17:01:15;9.18;;;3.88;;
74293;SDS011;64044;59.904;10.738;2022-12-07T17:03:47;11.07;;;4.28;;
74293;SDS011;64044;59.904;10.738;2022-12-07T17:06:17;18.52;;;5.80;;
74293;SDS011;64044;59.904;10.738;2022-12-07T17:08:45;9.32;;;4.40;;
74293;SDS011;64044;59.904;10.738;2022-12-07T17:11:25;16.85;;;4.07;;